»·PEaware :: AAL198 KSLC-KRNO

AAL198 :: KSLC-KRNO

FLIGHT INFORMATION

Flight Status: Arrived
Operator:
American Airlines
More flights by this operator :: More flights under this callsign
Pilot: Max W. (2591)
Aircraft: BOEING 767-200
(B762)
More flights by this aircraft type
Origin: KSLC Salt Lake City Intl
United States
Destination: KRNO Reno/Tahoe Intl
United States
More flights between these airports :: More routes between these airports
Route: +DEZRT1 BAM MYBAD MYBAD2
File this flight plan on PilotEdge
Remarks:
Altitude:
(Current/Filed)
32,000ft
Speed:
(Current/Filed)
450kts
Departed: 09-Nov-18 01:03 PM
Arrived: 09-Nov-18 02:04 PM
Distance/Time
Traveled:
366nm/1:01
Distance/Time
To Go:
Arrived

Flight Plot

Page will automatically refresh every two minutes.

Flight plan parsing failed; only flown route is shown


Map Options




Map Legend


Flown Route
Filed Route
Departure Airport
Arrival Airport
Navaid (VOR, NDB)
Fix

Horizontal Profiles

Position Reports

Time Latitude Longitude Heading Altitude Ground
Speed
09-Nov-18 12:39 40.786436 -111.978600 312 4238ft 0kts
09-Nov-18 12:40 40.786436 -111.978600 312 4238ft 0kts
09-Nov-18 12:41 40.786436 -111.978600 312 4238ft 0kts
09-Nov-18 12:42 40.786436 -111.978600 312 4238ft 0kts
09-Nov-18 12:43 40.786436 -111.978600 312 4238ft 0kts
09-Nov-18 12:44 40.786435 -111.978600 312 4238ft 0kts
09-Nov-18 12:45 40.786076 -111.978110 314 4238ft 2kts
09-Nov-18 12:46 40.785900 -111.977871 312 4238ft 0kts
09-Nov-18 12:47 40.785900 -111.977871 312 4238ft 0kts
09-Nov-18 12:48 40.785901 -111.977872 312 4238ft 0kts
09-Nov-18 12:49 40.785901 -111.977872 312 4238ft 0kts
09-Nov-18 12:50 40.785901 -111.977872 312 4238ft 0kts
09-Nov-18 12:51 40.785901 -111.977872 312 4238ft 0kts
09-Nov-18 12:52 40.785901 -111.977872 312 4238ft 0kts
09-Nov-18 12:53 40.785901 -111.977872 312 4238ft 0kts
09-Nov-18 12:54 40.785901 -111.977872 312 4238ft 0kts
09-Nov-18 12:55 40.785901 -111.977872 312 4238ft 0kts
09-Nov-18 12:56 40.785901 -111.977872 312 4238ft 0kts
09-Nov-18 12:57 40.785901 -111.977872 312 4238ft 0kts
09-Nov-18 12:58 40.786092 -111.976736 157 4238ft 14kts
09-Nov-18 12:59 40.780374 -111.976013 176 4238ft 29kts
09-Nov-18 13:00 40.774982 -111.974852 172 4238ft 0kts
09-Nov-18 13:01 40.774980 -111.974851 169 4238ft 0kts
09-Nov-18 13:02 40.774979 -111.974851 169 4238ft 0kts
09-Nov-18 13:03 40.774979 -111.974851 169 4238ft 0kts
09-Nov-18 13:04 40.774979 -111.974851 169 4238ft 0kts
09-Nov-18 13:05 40.776681 -111.973372 355 4238ft 4kts
09-Nov-18 13:06 40.807405 -111.977865 342 5447ft 168kts
09-Nov-18 13:07 40.834201 -112.029509 271 7303ft 229kts
09-Nov-18 13:08 40.837761 -112.123153 281 10461ft 278kts
09-Nov-18 13:09 40.848034 -112.210944 279 12443ft 338kts
09-Nov-18 13:10 40.864566 -112.366466 280 16372ft 382kts
09-Nov-18 13:11 40.866858 -112.510282 268 19633ft 405kts
09-Nov-18 13:12 40.857853 -112.635725 267 22060ft 421kts
09-Nov-18 13:13 40.843031 -112.817942 268 25018ft 441kts
09-Nov-18 13:14 40.842208 -112.953868 274 26891ft 452kts
09-Nov-18 13:15 40.842673 -113.150428 274 29206ft 468kts
09-Nov-18 13:16 40.842796 -113.294421 274 30933ft 472kts
09-Nov-18 13:17 40.842734 -113.467333 274 32563ft 478kts
09-Nov-18 13:18 40.842393 -113.639507 275 32513ft 470kts
09-Nov-18 13:19 40.841845 -113.805395 273 32484ft 457kts
09-Nov-18 13:20 40.840923 -113.973323 273 32485ft 458kts
09-Nov-18 13:21 40.839737 -114.140986 273 32485ft 458kts
09-Nov-18 13:22 40.838307 -114.308847 273 32485ft 458kts
09-Nov-18 13:23 40.836635 -114.476532 273 32485ft 458kts
09-Nov-18 13:24 40.834716 -114.644609 273 32484ft 458kts
09-Nov-18 13:25 40.826507 -114.808415 265 32474ft 462kts
09-Nov-18 13:26 40.807852 -114.976010 265 32433ft 462kts
09-Nov-18 13:27 40.788750 -115.143106 264 32430ft 459kts
09-Nov-18 13:28 40.769544 -115.308564 264 32431ft 458kts
09-Nov-18 13:29 40.750047 -115.474330 264 32430ft 458kts
09-Nov-18 13:30 40.730288 -115.640204 264 32430ft 458kts
09-Nov-18 13:31 40.710721 -115.802465 263 32432ft 459kts
09-Nov-18 13:32 40.690499 -115.968087 263 32432ft 459kts
09-Nov-18 13:33 40.669974 -116.134147 263 32432ft 459kts
09-Nov-18 13:34 40.649377 -116.298782 263 32423ft 459kts
09-Nov-18 13:35 40.628413 -116.464368 263 32413ft 459kts
09-Nov-18 13:36 40.607204 -116.629914 263 32412ft 459kts
09-Nov-18 13:37 40.586330 -116.790981 263 32414ft 459kts
09-Nov-18 13:38 40.565036 -116.956644 264 32415ft 458kts
09-Nov-18 13:39 40.545463 -117.120808 263 32413ft 455kts
09-Nov-18 13:40 40.525569 -117.285392 263 32413ft 455kts
09-Nov-18 13:41 40.505486 -117.449497 263 32418ft 455kts
09-Nov-18 13:42 40.485234 -117.613000 263 32430ft 455kts
09-Nov-18 13:43 40.465136 -117.773361 263 32433ft 455kts
09-Nov-18 13:44 40.444368 -117.937216 263 31731ft 458kts
09-Nov-18 13:45 40.423475 -118.100022 262 29403ft 445kts
09-Nov-18 13:46 40.403236 -118.256014 262 26892ft 426kts
09-Nov-18 13:47 40.372864 -118.401927 241 24401ft 408kts
09-Nov-18 13:48 40.314915 -118.530751 240 23945ft 412kts
09-Nov-18 13:49 40.259146 -118.653327 243 22488ft 399kts
09-Nov-18 13:50 40.209577 -118.780916 243 20997ft 390kts
09-Nov-18 13:51 40.160490 -118.905802 243 19492ft 383kts
09-Nov-18 13:52 40.112144 -119.028207 243 18059ft 370kts
09-Nov-18 13:53 40.068835 -119.137396 243 17087ft 310kts
09-Nov-18 13:54 40.030499 -119.233770 243 16070ft 291kts
09-Nov-18 13:55 39.994066 -119.325062 243 15055ft 278kts
09-Nov-18 13:56 39.958449 -119.414046 243 14049ft 275kts
09-Nov-18 13:57 39.922427 -119.500681 236 12938ft 271kts
09-Nov-18 13:58 39.881019 -119.576846 235 11878ft 267kts
09-Nov-18 13:59 39.840295 -119.653478 244 10847ft 262kts
09-Nov-18 14:00 39.831292 -119.743255 231 10034ft 248kts
09-Nov-18 14:01 39.773966 -119.767819 182 9680ft 215kts
09-Nov-18 14:02 39.713819 -119.768563 181 8538ft 218kts
09-Nov-18 14:03 39.653770 -119.768836 180 7328ft 207kts
09-Nov-18 14:04 39.603865 -119.768998 179 6291ft 157kts
09-Nov-18 14:05 39.562957 -119.769094 180 5497ft 144kts
09-Nov-18 14:06 39.523200 -119.769161 178 4721ft 145kts
09-Nov-18 14:07 39.497382 -119.771097 274 4420ft 13kts

Navigation Log

Ident Type
Flight plan parsing failed, navigation log unavailable